Main page
METAR-TAF:

METAR-TAF

Airports :

N'Djamena International Airport

N'Djamena, Chad

latitude: 12-08N, longitude: 015-02E, elevation: 295 m

Current weather observation

The report was made 33 minutes ago, at 22:00 UTC
Wind 6 kt from the South
Temperature 29°C
Humidity 58%
Pressure 1011 hPa
Visibility 10 km or more
no clouds below 1500 m and no cumulonimbus

METAR: FTTJ 162200Z 17006KT CAVOK 29/20 Q1011 NOSIG

Time: 23:33 (22:33 UTC)

Forecast

The report was made 5 hours and 33 minutes ago, at 17:00 UTC
Forecast valid from 16 at 18 UTC to 17 at 24 UTC
Wind 8 kt from the South/Southwest
Visibility: 7000 m
Probability 30% :
Temporary
from 16 at 20 UTC to 17 at 02 UTC
thunderstorm
Probability 40% :
Temporary
from 17 at 12 UTC to 17 at 18 UTC
Wind 16 kt from variable directions with gusts up to 40 kt
Visibility: 3000 m
thunderstorm, rain

TAF: FTTJ 161700Z 1618/1724 20008KT 7000 NSC PROB30 TEMPO 1620/1702 TS PROB40 TEMPO 1712/1718 VRB16G40KT 3000 TSRA

Weather observations and forecasts of more than 4000 airports (METAR and TAF reports).

The available stations are represented by yellow and red dots on the map.

Hover mouse over dot to see the name of the station.

Then click to see weather observations and forecasts.

To change the map : click on the green buttons with a black cross to zoom in, on the green button with a dash to zoom out, or on the green arrows for adjacent maps.


METAR-TAF: